Time;durP1;ratioP1;P1;durP2;ratioP2;P2;SDS_P1;SDS_P2;PMS_P1;PMS_P2;Temp;Humidity;BMP_temperature;BMP_pressure;BME280_temperature;BME280_humidity;BME280_pressure;Samples;Min_cycle;Max_cycle;Signal;HPM_P1;HPM_P2
2022/05/08 00:01:06;;;;;;;;;;;;;;;16.97;56.24;101414.75;5012185;28;8022;-74
2022/05/08 00:03:32;;;;;;;;;;;;;;;16.94;56.43;101415.53;5000094;28;6824;-74
2022/05/08 00:06:00;;;;;;;;;;;;;;;16.93;56.75;101416.34;5015667;28;6986;-74
2022/05/08 00:08:29;;;;;;;;;;;;;;;16.91;56.71;101416.28;4996489;28;8044;-74
2022/05/08 00:10:54;;;;;;;;;;;;;;;16.88;56.55;101418.75;5018688;28;6866;-74
2022/05/08 00:13:21;;;;;;;;;;;;;;;16.87;57.25;101417.00;5001429;28;6856;-74
2022/05/08 00:15:47;;;;;;;;;;;;;;;16.84;56.57;101413.41;5011073;28;7176;-74
2022/05/08 00:18:13;;;;;;;;;;;;;;;16.84;57.18;101418.59;5015016;28;6884;-74
2022/05/08 00:20:39;;;;;;;;;;;;;;;16.81;57.21;101416.75;5013935;28;6819;-74
2022/05/08 00:23:29;;;;;;;;;;;;;;;16.81;57.08;101416.75;5030783;28;7735;-74
2022/05/08 00:25:55;;;;;;;;;;;;;;;16.77;57.11;101418.34;5013640;28;6822;-74
2022/05/08 00:28:21;;;;;;;;;;;;;;;16.75;57.29;101419.09;5013219;28;6792;-74
2022/05/08 00:30:47;;;;;;;;;;;;;;;16.74;57.50;101425.09;4997645;28;6941;-74
2022/05/08 00:33:12;;;;;;;;;;;;;;;16.72;57.40;101418.97;5018547;28;6860;-74
2022/05/08 00:35:40;;;;;;;;;;;;;;;16.69;57.00;101419.75;5014595;28;6989;-74
2022/05/08 00:38:05;;;;;;;;;;;;;;;16.68;56.86;101414.53;5012485;28;8862;-74
2022/05/08 00:40:35;;;;;;;;;;;;;;;16.66;57.25;101419.63;5018161;28;7213;-74
2022/05/08 00:43:28;;;;;;;;;;;;;;;16.63;57.35;101416.94;5013205;28;6875;-74
2022/05/08 00:45:55;;;;;;;;;;;;;;;16.60;57.51;101420.28;4979992;28;7164;-74
2022/05/08 00:48:21;;;;;;;;;;;;;;;16.59;57.76;101418.50;4994368;28;7811;-74
2022/05/08 00:50:48;;;;;;;;;;;;;;;16.59;57.78;101425.38;5016506;28;6788;-74
2022/05/08 00:53:14;;;;;;;;;;;;;;;16.54;58.09;101420.03;4998438;28;7016;-74
2022/05/08 00:55:40;;;;;;;;;;;;;;;16.56;58.16;101425.28;5015534;28;8379;-74
2022/05/08 00:58:06;;;;;;;;;;;;;;;16.56;58.00;101418.38;4978691;28;7016;-74
2022/05/08 01:00:32;;;;;;;;;;;;;;;16.58;58.28;101426.22;5012998;28;6811;-74
2022/05/08 01:02:57;;;;;;;;;;;;;;;16.63;58.27;101430.75;5000745;28;6988;-74
2022/05/08 01:05:24;;;;;;;;;;;;;;;16.70;58.54;101418.91;5018769;28;8648;-74
2022/05/08 01:07:50;;;;;;;;;;;;;;;16.77;58.41;101420.94;5011984;28;8266;-74
2022/05/08 01:10:16;;;;;;;;;;;;;;;16.86;58.55;101422.09;4996327;28;7007;-74
2022/05/08 01:12:46;;;;;;;;;;;;;;;16.94;58.37;101420.69;4992346;28;7402;-74
2022/05/08 01:15:18;;;;;;;;;;;;;;;17.01;58.53;101411.50;5010874;28;6796;-74
2022/05/08 01:17:46;;;;;;;;;;;;;;;17.08;58.51;101418.66;5014002;28;7015;-74
2022/05/08 01:20:12;;;;;;;;;;;;;;;17.12;58.98;101420.53;5016899;28;6816;-74
2022/05/08 01:22:39;;;;;;;;;;;;;;;17.16;58.38;101418.94;5018815;28;6812;-74
2022/05/08 01:25:05;;;;;;;;;;;;;;;17.20;58.51;101415.66;5016072;28;6823;-74
2022/05/08 01:27:31;;;;;;;;;;;;;;;17.25;58.35;101419.28;4999762;28;6879;-74
2022/05/08 01:29:57;;;;;;;;;;;;;;;17.30;58.31;101424.63;5012689;28;7062;-74
2022/05/08 01:32:23;;;;;;;;;;;;;;;17.33;58.63;101420.44;4997361;28;6824;-74
2022/05/08 01:35:13;;;;;;;;;;;;;;;17.37;58.28;101421.44;5002204;28;6987;-74
2022/05/08 01:37:39;;;;;;;;;;;;;;;17.40;58.33;101420.69;5029451;28;6796;-74
2022/05/08 01:40:07;;;;;;;;;;;;;;;17.44;57.65;101426.03;5001467;28;7113;-74
2022/05/08 01:42:33;;;;;;;;;;;;;;;17.47;58.11;101422.66;4993279;28;6800;-74
2022/05/08 01:44:59;;;;;;;;;;;;;;;17.50;57.79;101430.56;5002065;28;6794;-74
2022/05/08 01:50:10;;;;;;;;;;;;;;;17.44;58.49;101433.81;5027608;28;6819;-74
2022/05/08 01:52:36;;;;;;;;;;;;;;;17.45;58.17;101437.28;5017759;28;6799;-74
2022/05/08 01:55:02;;;;;;;;;;;;;;;17.42;58.08;101438.03;5012492;28;6784;-75
2022/05/08 01:57:28;;;;;;;;;;;;;;;17.41;57.94;101433.69;5008286;28;7004;-75
2022/05/08 01:59:54;;;;;;;;;;;;;;;17.39;58.05;101440.53;5012415;28;7199;-75
2022/05/08 02:02:21;;;;;;;;;;;;;;;17.40;58.22;101431.06;5019043;28;6972;-75
2022/05/08 02:04:48;;;;;;;;;;;;;;;17.37;58.38;101430.91;4986791;28;7038;-75
2022/05/08 02:07:13;;;;;;;;;;;;;;;17.34;58.53;101437.75;5015057;28;6804;-74
2022/05/08 02:09:39;;;;;;;;;;;;;;;17.33;57.88;101445.47;4985503;28;6948;-74
2022/05/08 02:12:05;;;;;;;;;;;;;;;17.28;58.14;101440.13;5015625;28;6887;-74
2022/05/08 02:14:31;;;;;;;;;;;;;;;17.26;58.21;101438.31;5015812;28;6804;-74
2022/05/08 02:16:57;;;;;;;;;;;;;;;17.24;58.23;101440.84;4997591;28;7229;-74
2022/05/08 02:19:22;;;;;;;;;;;;;;;17.23;58.15;101448.53;5014420;28;6795;-74
2022/05/08 02:21:48;;;;;;;;;;;;;;;17.24;58.05;101442.53;5015548;28;6796;-74
2022/05/08 02:24:14;;;;;;;;;;;;;;;17.23;58.05;101444.25;5014282;28;7480;-74
2022/05/08 02:26:40;;;;;;;;;;;;;;;17.23;57.90;101449.44;5017163;28;6934;-74
2022/05/08 02:29:06;;;;;;;;;;;;;;;17.23;57.85;101452.03;4994204;28;7110;-74
2022/05/08 02:31:32;;;;;;;;;;;;;;;17.23;57.53;101449.44;5017599;28;6796;-74
2022/05/08 02:33:58;;;;;;;;;;;;;;;17.24;57.07;101442.53;5004179;28;6801;-74
2022/05/08 02:36:24;;;;;;;;;;;;;;;17.26;57.47;101449.53;5017184;28;7402;-74
2022/05/08 02:38:49;;;;;;;;;;;;;;;17.28;56.94;101454.78;5000042;28;8595;-74
2022/05/08 02:41:15;;;;;;;;;;;;;;;17.28;56.93;101450.47;4981291;28;6910;-74
2022/05/08 02:43:41;;;;;;;;;;;;;;;17.29;56.93;101448.78;5004566;28;7133;-75
2022/05/08 02:46:06;;;;;;;;;;;;;;;17.28;56.64;101450.47;5000638;28;8023;-74
2022/05/08 02:48:32;;;;;;;;;;;;;;;17.29;56.74;101447.09;4996939;28;6886;-74
2022/05/08 02:50:58;;;;;;;;;;;;;;;17.28;56.01;101445.28;5004067;28;6803;-75
2022/05/08 02:53:23;;;;;;;;;;;;;;;17.26;56.08;101449.53;4999666;28;6780;-75
2022/05/08 02:58:33;;;;;;;;;;;;;;;17.26;56.32;101461.63;5003431;28;7991;-74
2022/05/08 03:01:06;;;;;;;;;;;;;;;17.26;56.30;101454.72;4997316;28;6804;-74
2022/05/08 03:03:32;;;;;;;;;;;;;;;17.25;55.75;101457.28;5001221;28;6839;-74
2022/05/08 03:05:58;;;;;;;;;;;;;;;17.24;55.80;101461.56;5006678;28;6795;-74
2022/05/08 03:08:24;;;;;;;;;;;;;;;17.22;55.79;101463.22;4992309;28;7219;-74
2022/05/08 03:13:37;;;;;;;;;;;;;;;17.16;55.78;101465.56;5004720;28;7559;-74
2022/05/08 03:16:04;;;;;;;;;;;;;;;17.13;55.58;101463.75;4996984;28;7073;-74
2022/05/08 03:18:30;;;;;;;;;;;;;;;17.13;54.87;101473.22;5013958;28;6816;-75
2022/05/08 03:20:56;;;;;;;;;;;;;;;17.12;55.55;101477.50;5005756;28;7161;-75
2022/05/08 03:23:22;;;;;;;;;;;;;;;17.11;55.28;101480.06;4999533;28;6796;-75
2022/05/08 03:25:47;;;;;;;;;;;;;;;17.08;55.21;101484.28;5000677;28;6856;-75
2022/05/08 03:28:15;;;;;;;;;;;;;;;17.06;54.91;101478.16;5002261;28;7200;-75
2022/05/08 03:30:42;;;;;;;;;;;;;;;17.04;54.77;101478.94;5000449;28;7006;-75
2022/05/08 03:33:09;;;;;;;;;;;;;;;17.04;55.24;101479.81;5001600;28;6803;-75
2022/05/08 03:35:40;;;;;;;;;;;;;;;17.03;54.61;101482.34;4999541;28;7027;-75
2022/05/08 03:38:07;;;;;;;;;;;;;;;17.01;54.88;101479.72;5001487;28;7248;-75
2022/05/08 03:40:35;;;;;;;;;;;;;;;17.00;54.95;101477.03;4979791;28;8892;-75
2022/05/08 03:43:01;;;;;;;;;;;;;;;17.00;55.07;101482.19;5000295;28;7007;-75
2022/05/08 03:45:31;;;;;;;;;;;;;;;16.99;55.34;101483.88;4998481;28;6800;-74
2022/05/08 03:48:00;;;;;;;;;;;;;;;16.99;54.98;101480.44;5003134;28;7892;-74
2022/05/08 03:50:27;;;;;;;;;;;;;;;16.97;55.09;101482.97;4998924;28;6890;-74
2022/05/08 03:52:53;;;;;;;;;;;;;;;16.94;55.47;101475.94;4987547;28;7204;-75
2022/05/08 03:55:19;;;;;;;;;;;;;;;16.92;55.06;101480.19;4974472;28;7338;-74
2022/05/08 03:57:45;;;;;;;;;;;;;;;16.90;55.44;101480.94;5003632;28;7825;-74
2022/05/08 04:00:13;;;;;;;;;;;;;;;16.87;54.98;101481.72;4997526;28;7868;-74
2022/05/08 04:02:40;;;;;;;;;;;;;;;16.85;55.25;101477.31;4993164;28;6808;-74
2022/05/08 04:05:09;;;;;;;;;;;;;;;16.80;55.48;101478.03;4967696;28;6792;-74
2022/05/08 04:07:35;;;;;;;;;;;;;;;16.77;55.50;101482.19;4997915;28;6981;-74
2022/05/08 04:10:02;;;;;;;;;;;;;;;16.72;55.63;101475.94;4999514;28;7296;-75
2022/05/08 04:12:28;;;;;;;;;;;;;;;16.68;55.67;101484.41;4993775;28;6795;-75
2022/05/08 04:14:53;;;;;;;;;;;;;;;16.63;55.79;101484.22;4998024;28;6915;-75
2022/05/08 04:17:19;;;;;;;;;;;;;;;16.59;55.62;101487.50;4998807;28;6800;-75
2022/05/08 04:19:48;;;;;;;;;;;;;;;16.54;55.79;101487.31;4997359;28;7274;-75
2022/05/08 04:24:59;;;;;;;;;;;;;;;16.40;55.50;101478.97;5000869;28;6904;-75
2022/05/08 04:27:24;;;;;;;;;;;;;;;16.36;56.42;101487.44;4971036;28;6962;-75
2022/05/08 04:29:50;;;;;;;;;;;;;;;16.32;56.13;101482.94;4998171;28;7078;-74
2022/05/08 04:32:16;;;;;;;;;;;;;;;16.29;56.40;101488.91;4998679;28;6822;-74
2022/05/08 04:34:41;;;;;;;;;;;;;;;16.26;56.12;101495.63;5002347;28;6796;-74
2022/05/08 04:37:09;;;;;;;;;;;;;;;16.26;56.68;101490.47;4982228;28;7853;-74
2022/05/08 04:39:35;;;;;;;;;;;;;;;16.28;56.33;101492.31;4995200;28;6819;-74
2022/05/08 04:42:01;;;;;;;;;;;;;;;16.30;56.73;101497.53;4998310;28;6792;-74
2022/05/08 04:44:28;;;;;;;;;;;;;;;16.33;56.42;101498.53;4996989;28;6895;-74
2022/05/08 04:46:53;;;;;;;;;;;;;;;16.34;56.16;101500.31;5002077;28;7502;-74
2022/05/08 04:49:19;;;;;;;;;;;;;;;16.36;56.92;101501.25;5006564;28;6787;-74
2022/05/08 04:51:45;;;;;;;;;;;;;;;16.37;56.85;101502.13;4989483;28;6768;-74
2022/05/08 04:54:11;;;;;;;;;;;;;;;16.38;56.67;101506.50;5000288;28;6788;-74
2022/05/08 04:56:37;;;;;;;;;;;;;;;16.39;56.31;101508.25;4992814;28;6780;-74
2022/05/08 04:59:03;;;;;;;;;;;;;;;16.42;56.72;101508.41;4969007;28;6978;-74
2022/05/08 05:01:29;;;;;;;;;;;;;;;16.44;56.68;101514.53;5011639;28;7862;-74
2022/05/08 05:03:56;;;;;;;;;;;;;;;16.46;56.85;101510.28;5001638;28;6792;-74
2022/05/08 05:06:21;;;;;;;;;;;;;;;16.51;56.86;101513.97;4989280;28;8060;-74
2022/05/08 05:08:47;;;;;;;;;;;;;;;16.54;56.41;101517.50;4986133;28;6925;-74
2022/05/08 05:11:12;;;;;;;;;;;;;;;16.54;56.33;101520.06;4998995;28;6843;-74
2022/05/08 05:13:39;;;;;;;;;;;;;;;16.52;56.45;101526.06;4993688;28;6827;-74
2022/05/08 05:16:05;;;;;;;;;;;;;;;16.52;56.25;101531.25;5001587;28;6792;-74
2022/05/08 05:18:31;;;;;;;;;;;;;;;16.51;56.12;101531.19;5000186;28;6828;-74
2022/05/08 05:20:57;;;;;;;;;;;;;;;16.51;56.41;101529.50;4997172;28;6819;-74
2022/05/08 05:23:23;;;;;;;;;;;;;;;16.52;56.43;101530.34;4983479;28;6965;-74
2022/05/08 05:25:50;;;;;;;;;;;;;;;16.54;56.59;101533.03;4997514;28;7258;-74
2022/05/08 05:28:16;;;;;;;;;;;;;;;16.52;56.33;101528.66;5020369;28;7243;-74
2022/05/08 05:30:41;;;;;;;;;;;;;;;16.54;56.22;101541.66;4998817;28;6827;-74
2022/05/08 05:33:10;;;;;;;;;;;;;;;16.55;56.12;101533.06;5002040;28;6795;-74
2022/05/08 05:35:38;;;;;;;;;;;;;;;16.54;56.32;101533.03;4984403;28;6903;-74
2022/05/08 05:38:04;;;;;;;;;;;;;;;16.51;56.37;101534.66;4979136;28;7133;-74
2022/05/08 05:40:29;;;;;;;;;;;;;;;16.51;56.29;101534.66;4992617;28;6859;-74
2022/05/08 05:42:57;;;;;;;;;;;;;;;16.54;56.00;101535.59;4994862;28;6910;-75
2022/05/08 05:45:24;;;;;;;;;;;;;;;16.52;56.27;101544.19;5002610;28;6812;-75
2022/05/08 05:47:50;;;;;;;;;;;;;;;16.53;56.44;101545.06;4986943;28;6880;-75
2022/05/08 05:50:17;;;;;;;;;;;;;;;16.57;56.09;101546.06;4996806;28;6820;-75
2022/05/08 05:52:43;;;;;;;;;;;;;;;16.60;56.03;101552.25;4972588;28;7160;-75
2022/05/08 05:55:09;;;;;;;;;;;;;;;16.63;56.03;101547.22;4987320;28;6792;-75
2022/05/08 05:57:36;;;;;;;;;;;;;;;16.66;55.68;101551.63;5000919;28;6823;-75
2022/05/08 06:00:05;;;;;;;;;;;;;;;16.65;55.66;101552.47;4992760;28;6827;-75
2022/05/08 06:02:31;;;;;;;;;;;;;;;16.65;56.16;101560.22;5002262;28;6815;-75
2022/05/08 06:04:57;;;;;;;;;;;;;;;16.68;55.54;101557.75;4981649;28;6816;-75
2022/05/08 06:07:23;;;;;;;;;;;;;;;16.74;56.23;101558.00;5004234;28;7058;-75
2022/05/08 06:09:48;;;;;;;;;;;;;;;16.78;56.05;101561.63;5008221;28;6875;-75
2022/05/08 06:12:14;;;;;;;;;;;;;;;16.85;55.94;101563.66;5007228;28;6879;-75
2022/05/08 06:14:41;;;;;;;;;;;;;;;16.93;55.58;101567.41;5000332;28;6775;-75
2022/05/08 06:17:06;;;;;;;;;;;;;;;16.99;55.83;101578.84;5004881;28;7222;-75
2022/05/08 06:19:32;;;;;;;;;;;;;;;17.03;55.47;101573.88;5005387;28;6878;-75
2022/05/08 06:21:58;;;;;;;;;;;;;;;17.10;55.46;101582.78;5005219;28;6792;-75
2022/05/08 06:24:24;;;;;;;;;;;;;;;17.19;55.18;101582.25;5002441;28;7203;-75
2022/05/08 06:26:49;;;;;;;;;;;;;;;17.23;55.13;101584.16;4997788;28;6808;-75
2022/05/08 06:29:15;;;;;;;;;;;;;;;17.25;54.72;101576.44;4989104;28;7855;-74
2022/05/08 06:31:41;;;;;;;;;;;;;;;17.25;54.46;101579.91;4978330;28;8240;-74
2022/05/08 06:34:08;;;;;;;;;;;;;;;17.27;54.25;101578.25;5000777;28;6784;-74
2022/05/08 06:36:34;;;;;;;;;;;;;;;17.32;54.60;101584.50;5004624;28;6827;-74
2022/05/08 06:39:00;;;;;;;;;;;;;;;17.41;54.25;101588.28;5006587;28;6989;-74
2022/05/08 06:41:29;;;;;;;;;;;;;;;17.51;54.27;101586.91;5001760;28;6967;-74
2022/05/08 06:43:55;;;;;;;;;;;;;;;17.58;53.81;101591.53;5003900;28;6812;-74
2022/05/08 06:46:21;;;;;;;;;;;;;;;17.60;53.14;101595.06;4996062;28;6979;-74
2022/05/08 06:48:49;;;;;;;;;;;;;;;17.55;53.00;101594.00;5002421;28;6895;-74
2022/05/08 06:51:16;;;;;;;;;;;;;;;17.49;52.84;101597.25;4999662;28;6816;-74
2022/05/08 06:53:43;;;;;;;;;;;;;;;17.44;52.88;101596.19;4980638;28;8450;-74
2022/05/08 06:56:13;;;;;;;;;;;;;;;17.40;52.94;101595.16;5000940;28;6811;-74
2022/05/08 07:01:34;;;;;;;;;;;;;;;17.41;52.75;101596.06;4996936;28;7370;-74
2022/05/08 07:04:03;;;;;;;;;;;;;;;17.44;52.85;101598.75;4997761;28;6895;-74
2022/05/08 07:06:29;;;;;;;;;;;;;;;17.49;52.44;101592.06;5003899;28;6903;-74
2022/05/08 07:08:57;;;;;;;;;;;;;;;17.60;51.92;101597.66;5002912;28;7066;-74
2022/05/08 07:11:23;;;;;;;;;;;;;;;17.71;51.04;101603.25;5000964;28;6872;-74
2022/05/08 07:13:48;;;;;;;;;;;;;;;17.76;50.48;101612.06;5001838;28;7175;-74
2022/05/08 07:16:14;;;;;;;;;;;;;;;17.78;50.37;101626.00;4998805;28;6842;-74
2022/05/08 07:18:39;;;;;;;;;;;;;;;17.81;49.57;101620.91;5002680;28;6926;-74
2022/05/08 07:21:05;;;;;;;;;;;;;;;17.88;49.15;101622.91;4984962;28;6800;-74
2022/05/08 07:23:32;;;;;;;;;;;;;;;17.93;49.46;101628.28;5002018;28;6898;-74
2022/05/08 07:25:58;;;;;;;;;;;;;;;17.99;48.67;101625.91;5000129;28;6959;-74
2022/05/08 07:28:25;;;;;;;;;;;;;;;18.04;48.65;101628.69;5002349;28;6796;-74
2022/05/08 07:30:51;;;;;;;;;;;;;;;18.03;47.91;101630.41;4995835;28;8868;-74
2022/05/08 07:33:17;;;;;;;;;;;;;;;18.07;47.83;101630.53;4986903;28;6804;-74
2022/05/08 07:38:31;;;;;;;;;;;;;;;18.26;47.65;101632.09;4996061;28;6882;-74
2022/05/08 07:40:58;;;;;;;;;;;;;;;18.40;47.76;101633.44;4999671;28;7193;-74
2022/05/08 07:43:25;;;;;;;;;;;;;;;18.55;46.89;101633.09;4997205;28;6808;-74
2022/05/08 07:45:51;;;;;;;;;;;;;;;18.67;46.65;101632.66;5003189;28;6800;-74
2022/05/08 07:48:17;;;;;;;;;;;;;;;18.80;46.99;101643.44;5000472;28;6820;-74
2022/05/08 07:50:45;;;;;;;;;;;;;;;18.95;46.52;101636.19;5000118;28;6772;-74
2022/05/08 07:53:15;;;;;;;;;;;;;;;19.06;46.95;101644.34;4987713;28;7644;-74
2022/05/08 07:55:41;;;;;;;;;;;;;;;19.12;46.20;101636.75;5000753;28;7150;-74
2022/05/08 07:58:09;;;;;;;;;;;;;;;19.22;46.57;101643.16;5002144;28;8509;-74
2022/05/08 08:00:36;;;;;;;;;;;;;;;19.36;45.49;101645.28;4992266;28;6831;-74
2022/05/08 08:03:03;;;;;;;;;;;;;;;19.48;45.13;101642.19;5005117;28;6852;-74
2022/05/08 08:05:29;;;;;;;;;;;;;;;19.59;45.19;101639.91;4999475;28;6800;-74
2022/05/08 08:07:55;;;;;;;;;;;;;;;19.61;44.73;101646.94;4992016;28;6899;-74
2022/05/08 08:10:21;;;;;;;;;;;;;;;19.61;44.63;101651.28;4995009;28;6866;-74
2022/05/08 08:12:46;;;;;;;;;;;;;;;19.56;44.23;101648.53;4990832;28;6787;-74
2022/05/08 08:15:13;;;;;;;;;;;;;;;19.49;44.67;101652.63;4997234;28;6824;-74
2022/05/08 08:17:39;;;;;;;;;;;;;;;19.45;44.29;101655.97;5003442;28;7238;-74
2022/05/08 08:20:06;;;;;;;;;;;;;;;19.43;44.81;101660.25;5000829;28;7022;-75
2022/05/08 08:22:33;;;;;;;;;;;;;;;19.41;44.15;101656.69;4979832;28;7011;-74
2022/05/08 08:25:00;;;;;;;;;;;;;;;19.39;44.21;101658.38;4984312;28;7107;-74
2022/05/08 08:27:27;;;;;;;;;;;;;;;19.36;44.72;101658.28;4996022;28;7047;-74
2022/05/08 08:29:54;;;;;;;;;;;;;;;19.35;45.23;101660.00;5000091;28;7068;-74
2022/05/08 08:32:23;;;;;;;;;;;;;;;19.30;45.07;101656.38;4992079;28;6831;-74
2022/05/08 08:34:49;;;;;;;;;;;;;;;19.22;44.58;101663.94;5000927;28;6823;-74
2022/05/08 08:37:15;;;;;;;;;;;;;;;19.12;44.75;101662.75;5004919;28;7454;-74
2022/05/08 08:39:42;;;;;;;;;;;;;;;18.99;44.81;101660.56;5001729;28;7595;-74
2022/05/08 08:42:29;;;;;;;;;;;;;;;18.83;45.48;101669.50;4998709;28;7755;-74
2022/05/08 08:48:03;;;;;;;;;;;;;;;18.55;45.37;101674.63;4996612;28;6990;-74
2022/05/08 08:50:32;;;;;;;;;;;;;;;18.49;46.23;101678.72;4995082;28;7046;-75
2022/05/08 08:53:01;;;;;;;;;;;;;;;18.44;46.26;101666.47;5002647;28;8034;-75
2022/05/08 08:55:27;;;;;;;;;;;;;;;18.44;46.44;101681.16;5000751;28;6999;-75
2022/05/08 08:57:53;;;;;;;;;;;;;;;18.43;45.91;101676.81;4996057;28;6804;-74
2022/05/08 09:00:21;;;;;;;;;;;;;;;18.45;46.38;101683.81;4995196;28;9868;-74
2022/05/08 09:02:50;;;;;;;;;;;;;;;18.53;46.07;101685.78;4990447;28;6828;-74
2022/05/08 09:05:16;;;;;;;;;;;;;;;18.61;46.07;101681.75;5001848;28;6888;-75
2022/05/08 09:07:47;;;;;;;;;;;;;;;18.72;46.42;101683.00;4994858;28;7046;-74
2022/05/08 09:10:26;;;;;;;;;;;;;;;18.98;46.51;101684.75;4998007;28;8091;-74
2022/05/08 09:12:52;;;;;;;;;;;;;;;19.28;45.90;101682.31;4976206;28;7130;-74
2022/05/08 09:15:24;;;;;;;;;;;;;;;19.53;44.99;101677.00;5003749;28;6883;-74
2022/05/08 09:17:54;;;;;;;;;;;;;;;19.85;45.66;101677.13;5021014;28;6890;-74
2022/05/08 09:20:41;;;;;;;;;;;;;;;20.24;44.76;101676.56;5002064;28;7075;-74
2022/05/08 09:23:18;;;;;;;;;;;;;;;20.72;43.72;101679.59;5001249;28;7212;-74
2022/05/08 09:25:49;;;;;;;;;;;;;;;21.29;43.20;101674.91;5004111;28;6967;-74
2022/05/08 09:28:44;;;;;;;;;;;;;;;22.02;42.07;101673.97;5003458;28;6894;-74
2022/05/08 09:31:18;;;;;;;;;;;;;;;22.40;40.67;101672.97;4997693;28;6969;-74
2022/05/08 09:33:46;;;;;;;;;;;;;;;;;;5006432;28;7153;-74
2022/05/08 09:36:18;;;;;;;;;;;;;;;22.36;39.63;101672.88;5018114;28;6815;-74
2022/05/08 09:38:56;;;;;;;;;;;;;;;22.26;39.31;101670.09;4998953;28;6835;-74
2022/05/08 09:41:28;;;;;;;;;;;;;;;22.25;39.26;101670.94;5002603;28;7192;-74
2022/05/08 09:44:08;;;;;;;;;;;;;;;22.29;39.58;101664.91;5002405;28;6831;-74
2022/05/08 09:46:45;;;;;;;;;;;;;;;22.59;39.64;101660.28;5000476;28;6819;-74
2022/05/08 09:49:24;;;;;;;;;;;;;;;23.19;39.35;101662.16;5004249;28;6820;-74
2022/05/08 09:51:53;;;;;;;;;;;;;;;23.93;38.08;101655.34;4999855;28;6812;-74
2022/05/08 09:54:19;;;;;;;;;;;;;;;24.66;37.12;101655.31;5003600;28;8703;-74
2022/05/08 09:56:49;;;;;;;;;;;;;;;25.37;36.16;101641.91;5003873;28;6812;-74
2022/05/08 09:59:15;;;;;;;;;;;;;;;26.05;35.11;101647.50;5002470;28;7298;-75
2022/05/08 10:01:42;;;;;;;;;;;;;;;26.50;33.25;101648.50;4984885;28;6826;-75
2022/05/08 10:04:08;;;;;;;;;;;;;;;26.68;32.58;101645.88;4984387;28;7246;-75
2022/05/08 10:06:40;;;;;;;;;;;;;;;26.70;32.76;101646.75;5001947;28;6792;-75
2022/05/08 10:14:39;;;;;;;;;;;;;;;26.56;32.87;101643.25;4986178;28;7071;-75
2022/05/08 10:17:09;;;;;;;;;;;;;;;26.52;33.02;101637.13;4997072;28;6816;-75
2022/05/08 10:19:35;;;;;;;;;;;;;;;26.53;33.01;101644.13;5000719;28;6907;-75
2022/05/08 10:22:02;;;;;;;;;;;;;;;26.58;32.42;101639.72;4996773;28;6819;-74
2022/05/08 10:24:36;;;;;;;;;;;;;;;26.44;32.67;101647.59;5004085;28;7034;-74
2022/05/08 10:27:26;;;;;;;;;;;;;;;26.40;32.60;101650.22;4982363;28;6836;-74
2022/05/08 10:29:52;;;;;;;;;;;;;;;26.43;32.50;101645.84;5018326;28;7284;-75
2022/05/08 10:32:33;;;;;;;;;;;;;;;26.51;32.47;101643.25;4998679;28;6816;-74
2022/05/08 10:35:18;;;;;;;;;;;;;;;26.61;32.12;101641.50;5012878;28;6804;-74
2022/05/08 10:37:59;;;;;;;;;;;;;;;26.78;32.02;101632.75;5002434;28;7176;-75
2022/05/08 10:40:25;;;;;;;;;;;;;;;27.01;31.92;101632.75;5000502;28;6816;-74
2022/05/08 10:43:06;;;;;;;;;;;;;;;27.33;31.64;101626.56;5016107;28;6987;-74
2022/05/08 10:45:32;;;;;;;;;;;;;;;27.58;31.67;101627.38;5000962;28;6815;-74
2022/05/08 10:48:08;;;;;;;;;;;;;;;27.83;31.50;101627.28;5017634;28;7150;-73
2022/05/08 10:50:40;;;;;;;;;;;;;;;28.09;30.95;101623.63;4971609;28;7257;-73
2022/05/08 10:53:06;;;;;;;;;;;;;;;28.29;30.30;101622.66;4997141;28;6819;-73
2022/05/08 10:55:33;;;;;;;;;;;;;;;28.60;30.27;101614.53;5005335;28;6800;-73
2022/05/08 10:57:59;;;;;;;;;;;;;;;29.08;30.04;101607.97;5004026;28;6815;-74
2022/05/08 11:00:29;;;;;;;;;;;;;;;29.27;28.84;101603.34;5007140;28;7018;-74
2022/05/08 11:03:01;;;;;;;;;;;;;;;29.18;28.43;101601.69;5002727;28;7224;-73
2022/05/08 11:05:38;;;;;;;;;;;;;;;28.98;28.60;101603.69;5001190;28;6807;-73
2022/05/08 11:08:12;;;;;;;;;;;;;;;28.94;28.64;101605.47;5004730;28;6803;-73
2022/05/08 11:10:43;;;;;;;;;;;;;;;28.90;28.63;101601.97;5005661;28;6808;-73
2022/05/08 11:13:18;;;;;;;;;;;;;;;28.94;28.70;101602.81;5000256;28;6972;-73
2022/05/08 11:15:44;;;;;;;;;;;;;;;28.96;28.67;101601.03;5006100;28;6896;-73
2022/05/08 11:18:19;;;;;;;;;;;;;;;29.00;27.13;101599.25;5016723;28;7016;-74
2022/05/08 11:20:54;;;;;;;;;;;;;;;29.11;27.71;101595.59;5003471;28;6828;-73
2022/05/08 11:23:22;;;;;;;;;;;;;;;29.25;27.36;101595.44;5004171;28;7301;-73
2022/05/08 11:25:51;;;;;;;;;;;;;;;29.45;27.43;101598.78;5004446;28;6894;-73
2022/05/08 11:28:21;;;;;;;;;;;;;;;29.77;27.33;101594.84;5002478;28;6808;-73
2022/05/08 11:30:49;;;;;;;;;;;;;;;30.17;26.87;101593.44;4997736;28;6815;-73
2022/05/08 11:36:04;;;;;;;;;;;;;;;30.65;26.10;101583.88;5000591;28;6891;-73
2022/05/08 11:38:51;;;;;;;;;;;;;;;30.73;25.88;101587.25;4985417;28;6815;-73
2022/05/08 11:41:21;;;;;;;;;;;;;;;30.82;26.15;101587.09;4984252;28;7880;-73
2022/05/08 11:43:57;;;;;;;;;;;;;;;31.01;25.12;101581.44;5002939;28;6966;-73
2022/05/08 11:46:32;;;;;;;;;;;;;;;30.90;24.81;101584.28;4979258;28;6841;-73
2022/05/08 11:48:59;;;;;;;;;;;;;;;30.44;24.43;101578.03;4999633;28;6811;-73
2022/05/08 11:51:40;;;;;;;;;;;;;;;30.03;25.13;101594.47;5003480;28;7164;-73
2022/05/08 11:54:38;;;;;;;;;;;;;;;29.68;24.96;101585.28;4990656;28;6811;-73
2022/05/08 11:57:24;;;;;;;;;;;;;;;29.57;25.04;101584.56;4998167;28;6878;-73
2022/05/08 12:00:01;;;;;;;;;;;;;;;29.60;25.53;101580.13;5000196;28;7281;-73
2022/05/08 12:02:48;;;;;;;;;;;;;;;29.71;25.24;101579.94;4995303;28;6983;-73
2022/05/08 12:05:21;;;;;;;;;;;;;;;29.85;24.75;101576.25;5002010;28;7151;-73
2022/05/08 12:07:48;;;;;;;;;;;;;;;29.97;24.70;101576.06;5015990;28;6807;-73
2022/05/08 12:10:16;;;;;;;;;;;;;;;30.09;24.35;101572.41;5003485;28;6815;-74
2022/05/08 12:12:42;;;;;;;;;;;;;;;30.13;24.42;101570.56;5001641;28;7027;-74
2022/05/08 12:15:09;;;;;;;;;;;;;;;30.23;24.68;101569.56;4974550;28;6800;-74
2022/05/08 12:17:43;;;;;;;;;;;;;;;30.36;23.61;101556.97;4999746;28;6807;-74
2022/05/08 12:20:26;;;;;;;;;;;;;;;30.30;24.50;101562.38;5001219;28;6930;-73
2022/05/08 12:23:07;;;;;;;;;;;;;;;30.27;24.33;101562.41;4999688;28;7031;-73
2022/05/08 12:25:38;;;;;;;;;;;;;;;30.30;23.66;101551.81;5019690;28;7112;-73
2022/05/08 12:28:05;;;;;;;;;;;;;;;30.38;23.48;101544.63;5000663;28;7316;-73
2022/05/08 12:30:31;;;;;;;;;;;;;;;30.30;23.87;101543.88;5003144;28;6888;-73
2022/05/08 12:32:57;;;;;;;;;;;;;;;30.24;23.92;101547.50;4995849;28;6808;-74
2022/05/08 12:35:23;;;;;;;;;;;;;;;30.33;24.31;101539.41;4978651;28;6804;-73
2022/05/08 12:37:49;;;;;;;;;;;;;;;30.40;23.65;101541.94;4992714;28;7196;-73
2022/05/08 12:40:17;;;;;;;;;;;;;;;30.47;23.99;101535.66;5001317;28;6800;-73
2022/05/08 12:42:43;;;;;;;;;;;;;;;30.63;24.15;101538.88;4994185;28;7015;-73
2022/05/08 12:45:10;;;;;;;;;;;;;;;30.56;22.84;101537.25;5001585;28;6950;-73
2022/05/08 12:47:36;;;;;;;;;;;;;;;30.33;23.14;101530.59;5002639;28;7225;-74
2022/05/08 12:50:04;;;;;;;;;;;;;;;30.18;23.08;101537.91;4982088;28;6804;-73
2022/05/08 12:52:29;;;;;;;;;;;;;;;30.12;23.34;101527.41;5003508;28;6808;-73
2022/05/08 12:54:55;;;;;;;;;;;;;;;30.06;23.37;101530.16;5001480;28;6807;-72
2022/05/08 13:00:06;;;;;;;;;;;;;;;30.10;23.37;101533.63;5001784;28;6897;-74
2022/05/08 13:02:32;;;;;;;;;;;;;;;30.19;23.44;101528.19;4998848;28;7229;-73
2022/05/08 13:04:58;;;;;;;;;;;;;;;30.04;22.73;101527.53;5000083;28;6792;-73
2022/05/08 13:07:24;;;;;;;;;;;;;;;29.96;23.01;101518.84;5003923;28;6979;-73
2022/05/08 13:09:50;;;;;;;;;;;;;;;29.87;23.34;101521.63;5003285;28;7902;-73
2022/05/08 13:12:16;;;;;;;;;;;;;;;29.80;23.45;101526.97;4983023;28;6807;-73
2022/05/08 13:14:42;;;;;;;;;;;;;;;29.83;23.51;101528.72;5000667;28;6812;-73
2022/05/08 13:17:08;;;;;;;;;;;;;;;29.91;23.55;101520.66;4994601;28;7337;-73
2022/05/08 13:19:35;;;;;;;;;;;;;;;30.02;23.25;101509.94;4999933;28;6811;-73
2022/05/08 13:22:06;;;;;;;;;;;;;;;30.13;22.98;101513.31;4978098;28;7469;-73
2022/05/08 13:24:34;;;;;;;;;;;;;;;29.88;23.71;101508.38;5004744;28;7130;-73